createdAt,value
2019-04-21T00:00:18.657Z,40.49
2019-04-21T00:01:16.385Z,40.46
2019-04-21T00:02:26.336Z,40.43
2019-04-21T00:03:30.857Z,40.48
2019-04-21T00:04:42.577Z,40.47
2019-04-21T00:06:02.795Z,40.44
2019-04-21T00:07:02.776Z,40.45
2019-04-21T00:07:50.188Z,40.45
2019-04-21T00:09:10.842Z,40.46
2019-04-21T00:10:11.604Z,40.45
2019-04-21T00:10:56.182Z,40.49
2019-04-21T00:12:01.305Z,40.49
2019-04-21T00:12:51.451Z,40.49
2019-04-21T00:13:42.358Z,40.53
2019-04-21T00:14:43.293Z,40.45
2019-04-21T00:15:36.163Z,40.44
2019-04-21T00:16:29.555Z,40.48
2019-04-21T00:17:21.610Z,40.44
2019-04-21T00:18:17.036Z,40.46
2019-04-21T00:19:24.596Z,40.48
2019-04-21T00:20:30.814Z,40.46
2019-04-21T00:21:32.069Z,40.45
2019-04-21T00:22:41.090Z,40.45
2019-04-21T00:23:52.222Z,40.47
2019-04-21T00:24:44.207Z,40.42
2019-04-21T00:25:42.564Z,40.42
2019-04-21T00:27:43.673Z,40.4
2019-04-21T00:30:03.155Z,40.45
2019-04-21T00:30:55.367Z,40.47
2019-04-21T00:31:45.337Z,40.39
2019-04-21T00:32:41.216Z,40.42
2019-04-21T00:33:27.989Z,40.43
2019-04-21T00:34:15.449Z,40.43
2019-04-21T00:35:24.327Z,40.48
2019-04-21T00:36:27.725Z,40.47
2019-04-21T00:37:33.126Z,40.47
2019-04-21T00:40:09.037Z,40.38
2019-04-21T00:41:58.786Z,40.47
2019-04-21T00:42:48.219Z,40.46
2019-04-21T00:43:44.591Z,40.4
2019-04-21T00:44:36.279Z,40.51
2019-04-21T00:45:41.676Z,40.5
2019-04-21T00:46:47.049Z,40.47
2019-04-21T00:48:56.287Z,40.48
2019-04-21T00:49:56.365Z,40.45
2019-04-21T00:51:24.787Z,40.44
2019-04-21T00:52:20.702Z,40.44
2019-04-21T00:53:22.006Z,40.46
2019-04-21T00:54:16.488Z,40.43
2019-04-21T00:55:19.917Z,40.48
2019-04-21T00:56:08.318Z,40.49
2019-04-21T00:56:48.108Z,40.49
2019-04-21T00:58:10.319Z,40.52
2019-04-21T00:59:19.124Z,40.48
2019-04-21T01:00:06.761Z,40.5
2019-04-21T01:01:47.530Z,40.5
2019-04-21T01:03:08.250Z,40.53
2019-04-21T01:04:07.689Z,40.5
2019-04-21T01:05:10.714Z,40.47
2019-04-21T01:06:09.587Z,40.55
2019-04-21T01:07:57.598Z,40.51
2019-04-21T01:08:58.846Z,40.52
2019-04-21T01:09:48.399Z,40.49
2019-04-21T01:10:34.547Z,40.5
2019-04-21T01:13:02.395Z,40.55
2019-04-21T01:14:11.597Z,40.53
2019-04-21T01:15:18.174Z,40.5
2019-04-21T01:15:58.940Z,40.53
2019-04-21T01:16:57.205Z,40.51
2019-04-21T01:17:55.840Z,40.54
2019-04-21T01:18:54.318Z,40.55
2019-04-21T01:19:50.478Z,40.52
2019-04-21T01:20:18.235Z,40.49
2019-04-21T01:21:14.845Z,40.51
2019-04-21T01:22:13.929Z,40.55
2019-04-21T01:23:14.811Z,40.48
2019-04-21T01:24:29.352Z,40.51
2019-04-21T01:25:29.976Z,40.5
2019-04-21T01:26:38.939Z,40.49
2019-04-21T01:27:45.513Z,40.48
2019-04-21T01:28:44.670Z,40.48
2019-04-21T01:29:59.576Z,40.51
2019-04-21T01:31:02.206Z,40.48
2019-04-21T01:31:47.882Z,40.53
2019-04-21T01:32:58.873Z,40.49
2019-04-21T01:34:02.470Z,40.55
2019-04-21T01:34:57.536Z,40.51
2019-04-21T01:35:57.812Z,40.49
2019-04-21T01:36:49.642Z,40.51
2019-04-21T01:38:01.689Z,40.49
2019-04-21T01:39:12.959Z,40.53
2019-04-21T01:40:16.031Z,40.46
2019-04-21T01:40:58.909Z,40.51
2019-04-21T01:42:03.030Z,40.52
2019-04-21T01:44:58.027Z,40.51
2019-04-21T01:45:48.530Z,40.5
2019-04-21T01:46:48.559Z,40.51
2019-04-21T01:47:50.504Z,40.55
2019-04-21T01:48:49.031Z,40.53
2019-04-21T01:49:40.256Z,40.53
2019-04-21T01:52:08.632Z,40.58
2019-04-21T01:53:17.137Z,40.5
2019-04-21T01:55:05.851Z,40.49
2019-04-21T01:56:00.187Z,40.53
2019-04-21T01:57:49.157Z,40.57
2019-04-21T01:58:38.669Z,40.49
2019-04-21T01:59:40.126Z,40.51
2019-04-21T02:00:56.352Z,40.51
2019-04-21T02:01:52.037Z,40.53
2019-04-21T02:03:06.128Z,40.57
2019-04-21T02:04:23.812Z,40.53
2019-04-21T02:05:09.950Z,40.53
2019-04-21T02:05:58.442Z,40.53
2019-04-21T02:08:53.094Z,40.56
2019-04-21T02:09:56.646Z,40.5
2019-04-21T02:11:11.015Z,40.53
2019-04-21T02:11:59.844Z,40.51
2019-04-21T02:12:56.363Z,40.5
2019-04-21T02:14:09.729Z,40.51
2019-04-21T02:15:04.367Z,40.51
2019-04-21T02:16:11.087Z,40.53
2019-04-21T02:17:53.450Z,40.5
2019-04-21T02:18:54.295Z,40.51
2019-04-21T02:19:45.720Z,40.52
2019-04-21T02:20:36.362Z,40.5
2019-04-21T02:21:43.194Z,40.51
2019-04-21T02:23:26.157Z,40.53
2019-04-21T02:24:11.253Z,40.57
2019-04-21T02:25:13.755Z,40.53
2019-04-21T02:25:57.190Z,40.55
2019-04-21T02:27:06.236Z,40.53
2019-04-21T02:29:06.687Z,40.52
2019-04-21T02:30:35.203Z,40.53
2019-04-21T02:31:26.331Z,40.55
2019-04-21T02:32:42.883Z,40.5
2019-04-21T02:34:23.334Z,40.56
2019-04-21T02:35:49.331Z,40.53
2019-04-21T02:36:39.295Z,40.5
2019-04-21T02:38:36.100Z,40.54
2019-04-21T02:39:37.091Z,40.53
2019-04-21T02:40:29.211Z,40.58
2019-04-21T02:41:30.483Z,40.51
2019-04-21T02:42:26.175Z,40.48
2019-04-21T02:44:26.214Z,40.56
2019-04-21T02:45:16.125Z,40.52
2019-04-21T02:46:22.073Z,40.56
2019-04-21T02:47:16.357Z,40.54
2019-04-21T02:49:34.223Z,40.64
2019-04-21T02:50:25.735Z,40.56
2019-04-21T02:51:33.235Z,40.55
2019-04-21T02:52:30.804Z,40.54
2019-04-21T02:53:18.149Z,40.54
2019-04-21T02:56:16.541Z,40.58
2019-04-21T02:57:30.634Z,40.59
2019-04-21T02:58:15.697Z,40.5
2019-04-21T02:59:14.654Z,40.51
2019-04-21T03:00:13.461Z,40.59
2019-04-21T03:01:48.252Z,40.6
2019-04-21T03:03:12.806Z,40.54
2019-04-21T03:04:18.313Z,40.53
2019-04-21T03:06:50.071Z,40.52
2019-04-21T03:08:33.484Z,40.58
2019-04-21T03:09:44.239Z,40.56
2019-04-21T03:10:17.301Z,40.55
2019-04-21T03:11:16.810Z,40.54
2019-04-21T03:12:21.881Z,40.61
2019-04-21T03:14:35.357Z,40.58
2019-04-21T03:15:20.608Z,40.56
2019-04-21T03:17:21.562Z,40.54
2019-04-21T03:18:32.344Z,40.57
2019-04-21T03:19:14.624Z,40.57
2019-04-21T03:20:50.785Z,40.55
2019-04-21T03:22:19.845Z,40.52
2019-04-21T03:23:35.996Z,40.53
2019-04-21T03:24:39.541Z,40.59
2019-04-21T03:25:24.863Z,40.51
2019-04-21T03:26:19.217Z,40.64
2019-04-21T03:27:39.456Z,40.57
2019-04-21T03:29:27.987Z,40.55
2019-04-21T03:30:41.824Z,40.51
2019-04-21T03:32:13.536Z,40.54
2019-04-21T03:32:44.554Z,40.62
2019-04-21T03:35:57.187Z,40.58
2019-04-21T03:36:39.659Z,40.54
2019-04-21T03:37:52.138Z,40.57
2019-04-21T03:39:17.713Z,40.56
2019-04-21T03:40:18.398Z,40.6
2019-04-21T03:42:33.523Z,40.54
2019-04-21T03:43:34.343Z,40.59
2019-04-21T03:44:14.206Z,40.54
2019-04-21T03:46:14.259Z,40.6
2019-04-21T03:48:16.596Z,40.56
2019-04-21T03:49:47.089Z,40.6
2019-04-21T03:50:25.983Z,40.53
2019-04-21T03:51:20.081Z,40.55
2019-04-21T03:52:29.380Z,40.5
2019-04-21T03:53:23.874Z,40.56
2019-04-21T03:54:24.946Z,40.59
2019-04-21T03:56:14.376Z,40.51
2019-04-21T03:57:45.710Z,40.58
2019-04-21T03:58:34.402Z,40.56
2019-04-21T04:00:41.629Z,40.61
2019-04-21T04:01:07.610Z,40.58
2019-04-21T04:02:41.152Z,40.58
2019-04-21T04:04:33.865Z,40.54
2019-04-21T04:05:34.272Z,40.48
2019-04-21T04:06:24.310Z,40.53
2019-04-21T04:07:30.728Z,40.6
2019-04-21T04:08:31.193Z,40.54
2019-04-21T04:09:36.622Z,40.58
2019-04-21T04:10:21.824Z,40.61
2019-04-21T04:12:18.617Z,40.62
2019-04-21T04:13:13.371Z,40.59
2019-04-21T04:14:38.609Z,40.57
2019-04-21T04:15:20.231Z,40.64
2019-04-21T04:16:24.713Z,40.61
2019-04-21T04:17:32.365Z,40.57
2019-04-21T04:18:16.181Z,40.59
2019-04-21T04:19:32.626Z,40.57
2019-04-21T04:20:11.447Z,40.58
2019-04-21T04:21:26.739Z,40.54
2019-04-21T04:22:29.322Z,40.57
2019-04-21T04:23:30.811Z,40.53
2019-04-21T04:24:29.714Z,40.54
2019-04-21T04:25:17.336Z,40.55
2019-04-21T04:26:21.855Z,40.64
2019-04-21T04:28:45.807Z,40.52
2019-04-21T04:29:31.101Z,40.62
2019-04-21T04:31:24.031Z,40.57
2019-04-21T04:33:27.692Z,40.51
2019-04-21T04:34:27.130Z,40.6
2019-04-21T04:35:33.446Z,40.59
2019-04-21T04:36:23.636Z,40.54
2019-04-21T04:37:36.026Z,40.56
2019-04-21T04:38:31.999Z,40.56
2019-04-21T04:39:48.137Z,40.54
2019-04-21T04:40:13.177Z,40.57
2019-04-21T04:41:24.250Z,40.55
2019-04-21T04:42:38.829Z,40.53
2019-04-21T04:43:24.561Z,40.57
2019-04-21T04:44:38.868Z,40.56
2019-04-21T04:45:38.203Z,40.56
2019-04-21T04:46:26.160Z,40.58
2019-04-21T04:47:32.268Z,40.59
2019-04-21T04:49:23.380Z,40.55
2019-04-21T04:50:09.671Z,40.57
2019-04-21T04:51:11.408Z,40.6
2019-04-21T04:53:39.564Z,40.55
2019-04-21T04:54:19.268Z,40.57
2019-04-21T04:56:10.246Z,40.64
2019-04-21T05:00:34.195Z,40.64
2019-04-21T05:01:50.942Z,40.63
2019-04-21T05:02:19.263Z,40.63
2019-04-21T05:03:34.433Z,40.62
2019-04-21T05:04:15.302Z,40.6
2019-04-21T05:06:41.820Z,40.6
2019-04-21T05:07:42.606Z,40.6
2019-04-21T05:08:19.049Z,40.62
2019-04-21T05:09:30.385Z,40.59
2019-04-21T05:10:26.917Z,40.63
2019-04-21T05:11:30.304Z,40.66
2019-04-21T05:12:08.802Z,40.63
2019-04-21T05:13:15.909Z,40.58
2019-04-21T05:14:21.047Z,40.59
2019-04-21T05:15:11.071Z,40.63
2019-04-21T05:16:09.608Z,40.67
2019-04-21T05:17:28.437Z,40.77
2019-04-21T05:18:24.099Z,40.74
2019-04-21T05:19:29.905Z,40.81
2019-04-21T05:20:41.397Z,40.9
2019-04-21T05:21:29.587Z,40.87
2019-04-21T05:22:16.685Z,40.93
2019-04-21T05:23:05.680Z,40.92
2019-04-21T05:23:55.265Z,40.92
2019-04-21T05:25:41.400Z,40.91
2019-04-21T05:26:47.585Z,40.91
2019-04-21T05:27:46.518Z,40.93
2019-04-21T05:28:40.531Z,40.96
2019-04-21T05:31:12.395Z,40.99
2019-04-21T05:32:07.451Z,40.96
2019-04-21T05:33:08.970Z,40.94
2019-04-21T05:34:09.280Z,40.95
2019-04-21T05:35:01.364Z,40.97
2019-04-21T05:36:02.927Z,40.98
2019-04-21T05:37:59.733Z,40.97
2019-04-21T05:38:47.443Z,40.98
2019-04-21T05:39:47.863Z,40.97
2019-04-21T05:40:43.516Z,40.93
2019-04-21T05:41:38.450Z,40.97
2019-04-21T05:45:15.674Z,40.98
2019-04-21T05:46:04.217Z,40.94
2019-04-21T05:47:20.054Z,40.97
2019-04-21T05:48:11.463Z,41.04
2019-04-21T05:48:56.992Z,41.11
2019-04-21T05:50:58.720Z,41.04
2019-04-21T05:51:49.565Z,41.08
2019-04-21T05:52:49.641Z,41.06
2019-04-21T05:54:14.550Z,41.05
2019-04-21T05:55:16.410Z,41.07
2019-04-21T05:56:09.756Z,41.05
2019-04-21T05:57:57.092Z,41.02
2019-04-21T06:00:08.629Z,41.05
2019-04-21T06:01:28.354Z,41.01
2019-04-21T06:03:09.446Z,41.04
2019-04-21T06:04:13.628Z,41.01
2019-04-21T06:05:20.101Z,41.07
2019-04-21T06:06:13.361Z,41.05
2019-04-21T06:07:18.687Z,41.03
2019-04-21T06:08:06.837Z,41.05
2019-04-21T06:08:58.156Z,41.06
2019-04-21T06:11:07.104Z,41.03
2019-04-21T06:13:18.533Z,41.06
2019-04-21T06:14:07.526Z,41.05
2019-04-21T06:15:06.849Z,41.04
2019-04-21T06:16:13.656Z,41.07
2019-04-21T06:17:07.842Z,41.07
2019-04-21T06:18:18.758Z,41.02
2019-04-21T06:19:10.006Z,41.04
2019-04-21T06:20:12.182Z,41.06
2019-04-21T06:21:04.891Z,41.05
2019-04-21T06:21:56.735Z,41.07
2019-04-21T06:24:02.101Z,41.1
2019-04-21T06:25:40.803Z,41.03
2019-04-21T06:26:44.368Z,41.02
2019-04-21T06:28:11.798Z,41.08
2019-04-21T06:29:08.394Z,41.04
2019-04-21T06:29:58.611Z,41.1
2019-04-21T06:31:46.576Z,41.03
2019-04-21T06:32:48.949Z,40.98
2019-04-21T06:33:15.121Z,41.03
2019-04-21T06:34:03.388Z,41.03
2019-04-21T06:35:27.917Z,41.05
2019-04-21T06:36:30.440Z,41.01
2019-04-21T06:37:21.268Z,40.99
2019-04-21T06:38:12.955Z,41
2019-04-21T06:39:37.030Z,41
2019-04-21T06:40:27.574Z,41.06
2019-04-21T06:41:03.427Z,41.02
2019-04-21T06:41:58.291Z,41.03
2019-04-21T06:43:25.706Z,41.03
2019-04-21T06:44:07.301Z,41.03
2019-04-21T06:45:11.565Z,41.01
2019-04-21T06:45:58.681Z,41.01
2019-04-21T06:47:05.796Z,41.02
2019-04-21T06:48:10.778Z,40.98
2019-04-21T06:49:02.196Z,40.97
2019-04-21T06:50:00.002Z,40.99
2019-04-21T06:51:08.429Z,40.99
2019-04-21T06:52:02.026Z,40.98
2019-04-21T06:53:02.365Z,40.95
2019-04-21T06:54:14.116Z,40.94
2019-04-21T06:55:13.604Z,40.94
2019-04-21T06:57:08.511Z,40.96
2019-04-21T06:58:04.980Z,40.96
2019-04-21T06:59:04.909Z,40.96
2019-04-21T06:59:49.487Z,40.98
2019-04-21T07:00:46.756Z,40.95
2019-04-21T07:02:21.033Z,40.95
2019-04-21T07:04:05.285Z,40.95
2019-04-21T07:05:12.971Z,40.98
2019-04-21T07:06:12.328Z,40.93
2019-04-21T07:07:11.384Z,40.96
2019-04-21T07:08:21.504Z,40.94
2019-04-21T07:09:15.089Z,40.9
2019-04-21T07:10:01.177Z,40.94
2019-04-21T07:10:55.765Z,40.94
2019-04-21T07:13:54.467Z,40.94
2019-04-21T07:15:03.124Z,40.94
2019-04-21T07:16:10.556Z,40.94
2019-04-21T07:17:11.224Z,40.9
2019-04-21T07:17:57.626Z,40.91
2019-04-21T07:19:12.273Z,40.96
2019-04-21T07:20:12.029Z,40.91
2019-04-21T07:21:05.852Z,40.9
2019-04-21T07:21:55.331Z,40.89
2019-04-21T07:23:01.578Z,40.89
2019-04-21T07:24:13.683Z,40.85
2019-04-21T07:25:02.208Z,40.85
2019-04-21T07:27:08.667Z,40.88
2019-04-21T07:28:02.746Z,40.86
2019-04-21T07:29:13.968Z,40.86
2019-04-21T07:30:12.676Z,40.87
2019-04-21T07:31:24.742Z,40.83
2019-04-21T07:32:20.477Z,40.85
2019-04-21T07:33:00.756Z,40.8
2019-04-21T07:34:07.266Z,40.81
2019-04-21T07:37:10.091Z,40.75
2019-04-21T07:37:57.543Z,40.78
2019-04-21T07:39:00.011Z,40.8
2019-04-21T07:39:54.396Z,40.78
2019-04-21T07:40:45.325Z,40.79
2019-04-21T07:41:48.071Z,40.81
2019-04-21T07:42:47.643Z,40.79
2019-04-21T07:43:47.656Z,40.78
2019-04-21T07:44:45.831Z,40.76
2019-04-21T07:46:38.366Z,40.69
2019-04-21T07:48:13.566Z,40.73
2019-04-21T07:50:00.109Z,40.74
2019-04-21T07:52:10.743Z,40.74
2019-04-21T07:53:13.986Z,40.74
2019-04-21T07:54:10.154Z,40.75
2019-04-21T07:55:18.321Z,40.69
2019-04-21T07:56:30.721Z,40.7
2019-04-21T07:57:41.434Z,40.69
2019-04-21T07:59:01.521Z,40.69
2019-04-21T08:00:28.702Z,40.65
2019-04-21T08:01:03.709Z,40.65
2019-04-21T08:01:54.709Z,40.65
2019-04-21T08:02:53.807Z,40.69
2019-04-21T08:03:59.072Z,40.7
2019-04-21T08:05:12.841Z,40.66
2019-04-21T08:05:57.162Z,40.66
2019-04-21T08:06:55.259Z,40.66
2019-04-21T08:08:01.256Z,40.69
2019-04-21T08:08:59.050Z,40.73
2019-04-21T08:09:56.845Z,40.7
2019-04-21T08:11:51.416Z,40.62
2019-04-21T08:12:54.022Z,40.66
2019-04-21T08:14:00.436Z,40.63
2019-04-21T08:15:07.556Z,40.66
2019-04-21T08:16:17.055Z,40.66
2019-04-21T08:17:02.670Z,40.62
2019-04-21T08:17:53.212Z,40.55
2019-04-21T08:18:57.604Z,40.56
2019-04-21T08:22:05.063Z,40.58
2019-04-21T08:23:12.588Z,40.65
2019-04-21T08:23:46.536Z,40.59
2019-04-21T08:26:13.616Z,40.67
2019-04-21T08:27:04.778Z,40.69
2019-04-21T08:27:58.263Z,40.6
2019-04-21T08:29:12.385Z,40.68
2019-04-21T08:30:04.247Z,40.68
2019-04-21T08:31:01.080Z,40.67
2019-04-21T08:32:07.662Z,40.63
2019-04-21T08:33:24.512Z,40.7
2019-04-21T08:34:07.542Z,40.84
2019-04-21T08:35:15.875Z,40.82
2019-04-21T08:36:56.535Z,40.93
2019-04-21T08:37:47.977Z,40.99
2019-04-21T08:38:58.102Z,40.88
2019-04-21T08:41:01.343Z,40.94
2019-04-21T08:41:55.764Z,40.95
2019-04-21T08:42:59.466Z,40.95
2019-04-21T08:44:00.561Z,40.94
2019-04-21T08:45:07.170Z,40.91
2019-04-21T08:45:58.586Z,40.97
2019-04-21T08:46:58.598Z,41.01
2019-04-21T08:47:58.039Z,40.99
2019-04-21T08:49:00.419Z,40.98
2019-04-21T08:51:03.701Z,41.05
2019-04-21T08:52:19.880Z,41.01
2019-04-21T08:53:19.334Z,41.07
2019-04-21T08:54:01.017Z,41.11
2019-04-21T08:56:03.056Z,41.15
2019-04-21T08:57:01.017Z,41.11
2019-04-21T08:59:10.729Z,41.02
2019-04-21T09:00:12.116Z,41.06
2019-04-21T09:01:00.685Z,41.03
2019-04-21T09:02:01.164Z,41.05
2019-04-21T09:03:01.593Z,41.04
2019-04-21T09:03:58.557Z,41.06
2019-04-21T09:05:10.928Z,40.98
2019-04-21T09:05:56.919Z,41
2019-04-21T09:07:12.477Z,41
2019-04-21T09:08:03.671Z,40.97
2019-04-21T09:08:57.531Z,40.99
2019-04-21T09:10:02.655Z,41.09
2019-04-21T09:11:47.021Z,41.1
2019-04-21T09:13:53.895Z,41.09
2019-04-21T09:14:54.043Z,41.18
2019-04-21T09:15:47.026Z,41.2
2019-04-21T09:17:40.715Z,41.23
2019-04-21T09:20:24.712Z,41.26
2019-04-21T09:20:56.907Z,41.21
2019-04-21T09:21:49.774Z,41.2
2019-04-21T09:26:04.807Z,41.3
2019-04-21T09:26:51.203Z,41.22
2019-04-21T09:27:54.866Z,41.24
2019-04-21T09:28:39.283Z,41.29
2019-04-21T09:29:35.339Z,41.28
2019-04-21T09:30:15.330Z,41.32
2019-04-21T09:31:25.813Z,41.33
2019-04-21T09:32:25.108Z,41.29
2019-04-21T09:33:14.223Z,41.32
2019-04-21T09:34:28.428Z,41.29
2019-04-21T09:35:24.228Z,41.29
2019-04-21T09:36:21.587Z,41.29
2019-04-21T09:37:39.532Z,41.3
2019-04-21T09:38:34.929Z,41.38
2019-04-21T09:39:21.980Z,41.36
2019-04-21T09:40:17.946Z,41.36
2019-04-21T09:41:22.086Z,41.33
2019-04-21T09:42:18.369Z,41.35
2019-04-21T09:43:30.514Z,41.3
2019-04-21T09:44:27.234Z,41.29
2019-04-21T09:45:16.061Z,41.34
2019-04-21T09:46:14.316Z,41.41
2019-04-21T09:47:21.567Z,41.36
2019-04-21T09:48:20.999Z,41.38
2019-04-21T09:49:22.401Z,41.41
2019-04-21T09:50:14.858Z,41.36
2019-04-21T09:51:13.648Z,41.45
2019-04-21T09:52:25.556Z,41.41
2019-04-21T09:53:31.102Z,41.45
2019-04-21T09:54:26.462Z,41.47
2019-04-21T09:55:22.529Z,41.42
2019-04-21T09:56:28.450Z,41.4
2019-04-21T09:57:33.377Z,41.36
2019-04-21T09:58:29.175Z,41.31
2019-04-21T09:59:27.935Z,41.33
2019-04-21T10:00:25.165Z,41.34
2019-04-21T10:01:29.753Z,41.36
2019-04-21T10:02:30.948Z,41.33
2019-04-21T10:03:17.929Z,41.38
2019-04-21T10:04:14.487Z,41.32
2019-04-21T10:05:14.758Z,41.4
2019-04-21T10:06:17.734Z,41.31
2019-04-21T10:07:31.475Z,41.38
2019-04-21T10:08:14.679Z,41.34
2019-04-21T10:09:19.555Z,41.38
2019-04-21T10:10:15.023Z,41.37
2019-04-21T10:11:14.292Z,41.39
2019-04-21T10:12:14.399Z,41.34
2019-04-21T10:13:15.123Z,41.36
2019-04-21T10:14:14.006Z,41.41
2019-04-21T10:15:14.319Z,41.37
2019-04-21T10:16:13.539Z,41.38
2019-04-21T10:17:13.552Z,41.32
2019-04-21T10:18:13.458Z,41.29
2019-04-21T10:19:13.554Z,41.31
2019-04-21T10:20:13.945Z,41.32
2019-04-21T10:21:13.480Z,41.35
2019-04-21T10:22:14.984Z,41.31
2019-04-21T10:23:13.762Z,41.32
2019-04-21T10:24:12.672Z,44.69
2019-04-21T10:25:12.755Z,41.43
2019-04-21T10:26:12.761Z,41.11
2019-04-21T10:27:14.744Z,40.92
2019-04-21T10:28:13.084Z,40.73
2019-04-21T10:29:22.561Z,40.62
2019-04-21T10:30:14.305Z,40.52
2019-04-21T10:31:12.636Z,40.44
2019-04-21T10:32:13.553Z,40.42
2019-04-21T10:33:12.768Z,40.38
2019-04-21T10:34:13.650Z,40.31
2019-04-21T10:35:13.164Z,40.27
2019-04-21T10:36:13.269Z,40.23
2019-04-21T10:37:13.478Z,40.24
2019-04-21T10:38:33.085Z,40.18
2019-04-21T10:39:13.904Z,40.24
2019-04-21T10:40:13.917Z,40.16
2019-04-21T10:41:12.951Z,40.17
2019-04-21T10:42:13.416Z,40.14
2019-04-21T10:43:17.611Z,40.18
2019-04-21T10:44:13.736Z,40.17
2019-04-21T10:45:12.923Z,40.14
2019-04-21T10:46:13.135Z,40.14
2019-04-21T10:46:54.430Z,40.13
2019-04-21T10:47:50.510Z,40.18
2019-04-21T10:48:44.417Z,41.25
2019-04-21T10:49:44.981Z,40.67
2019-04-21T10:50:45.498Z,40.82
2019-04-21T10:51:44.581Z,40.66
2019-04-21T10:52:45.001Z,40.81
2019-04-21T10:53:49.491Z,40.74
2019-04-21T10:55:26.114Z,40.72
2019-04-21T10:56:11.971Z,40.86
2019-04-21T10:56:47.401Z,40.87
2019-04-21T10:57:44.712Z,40.84
2019-04-21T10:58:44.735Z,40.91
2019-04-21T10:59:50.991Z,40.9
2019-04-21T11:00:44.537Z,40.92
2019-04-21T11:01:45.373Z,40.96
2019-04-21T11:02:44.483Z,40.94
2019-04-21T11:03:44.978Z,40.95
2019-04-21T11:04:46.938Z,41
2019-04-21T11:05:45.095Z,40.97
2019-04-21T11:06:44.616Z,41.06
2019-04-21T11:08:08.764Z,41.06
2019-04-21T11:08:52.156Z,41.08
2019-04-21T11:09:44.492Z,41.05
2019-04-21T11:10:45.772Z,41.03
2019-04-21T11:11:49.654Z,41.06
2019-04-21T11:12:47.771Z,41.09
2019-04-21T11:13:44.542Z,41.06
2019-04-21T11:14:45.366Z,41.1
2019-04-21T11:15:45.576Z,41.09
2019-04-21T11:16:49.698Z,41.13
2019-04-21T11:17:47.244Z,41.07
2019-04-21T11:18:44.332Z,41.08
2019-04-21T11:19:44.318Z,41.06
2019-04-21T11:20:44.893Z,41.03
2019-04-21T11:21:45.105Z,41.06
2019-04-21T11:22:44.367Z,41.01
2019-04-21T11:23:45.965Z,41.04
2019-04-21T11:24:45.128Z,41.07
2019-04-21T11:25:44.454Z,41.02
2019-04-21T11:26:45.654Z,41.04
2019-04-21T11:27:45.047Z,41.02
2019-04-21T11:28:45.371Z,41.01
2019-04-21T11:29:44.462Z,41.02
2019-04-21T11:30:44.754Z,41.01
2019-04-21T11:31:45.384Z,40.98
2019-04-21T11:32:48.176Z,41.03
2019-04-21T11:33:45.477Z,40.98
2019-04-21T11:34:45.508Z,41.01
2019-04-21T11:35:45.582Z,40.95
2019-04-21T11:36:44.405Z,40.96
2019-04-21T11:37:44.340Z,40.93
2019-04-21T11:39:12.233Z,40.93
2019-04-21T11:39:59.878Z,40.96
2019-04-21T11:40:45.652Z,40.92
2019-04-21T11:41:45.883Z,40.94
2019-04-21T11:42:45.853Z,40.96
2019-04-21T11:43:45.571Z,40.88
2019-04-21T11:44:45.169Z,40.92
2019-04-21T11:45:44.561Z,40.87
2019-04-21T11:46:44.672Z,40.87
2019-04-21T11:47:44.463Z,40.94
2019-04-21T11:48:44.519Z,40.89
2019-04-21T11:49:45.411Z,40.89
2019-04-21T11:50:44.511Z,40.93
2019-04-21T11:51:45.117Z,40.9
2019-04-21T11:52:45.334Z,40.9
2019-04-21T11:53:44.517Z,40.84
2019-04-21T11:54:44.728Z,40.89
2019-04-21T11:55:49.936Z,40.84
2019-04-21T11:56:45.360Z,40.83
2019-04-21T11:57:49.837Z,40.88
2019-04-21T11:58:45.944Z,40.83
2019-04-21T11:59:44.337Z,40.82
2019-04-21T12:00:45.488Z,40.81
2019-04-21T12:01:45.784Z,40.88
2019-04-21T12:02:45.793Z,40.82
2019-04-21T12:03:45.612Z,40.82
2019-04-21T12:04:45.517Z,40.82
2019-04-21T12:05:45.629Z,40.8
2019-04-21T12:06:49.466Z,40.84
2019-04-21T12:07:45.338Z,40.81
2019-04-21T12:08:51.414Z,40.8
2019-04-21T12:09:45.786Z,40.82
2019-04-21T12:10:45.256Z,40.83
2019-04-21T12:11:45.466Z,40.82
2019-04-21T12:12:45.576Z,40.82
2019-04-21T12:13:46.032Z,40.82
2019-04-21T12:14:44.420Z,40.85
2019-04-21T12:15:45.291Z,40.76
2019-04-21T12:16:44.315Z,40.78
2019-04-21T12:17:44.337Z,40.79
2019-04-21T12:18:45.313Z,40.81
2019-04-21T12:19:46.189Z,40.83
2019-04-21T12:20:45.344Z,40.78
2019-04-21T12:22:04.698Z,40.77
2019-04-21T12:22:45.567Z,40.79
2019-04-21T12:23:44.936Z,40.78
2019-04-21T12:24:45.149Z,40.8
2019-04-21T12:25:45.465Z,40.78
2019-04-21T12:26:46.068Z,40.78
2019-04-21T12:27:45.894Z,40.74
2019-04-21T12:28:46.099Z,40.72
2019-04-21T12:29:46.156Z,40.75
2019-04-21T12:30:45.397Z,40.79
2019-04-21T12:31:45.610Z,40.71
2019-04-21T12:32:44.490Z,40.79
2019-04-21T12:33:45.972Z,40.87
2019-04-21T12:34:48.466Z,40.76
2019-04-21T12:35:46.054Z,40.75
2019-04-21T12:36:44.281Z,40.74
2019-04-21T12:37:44.938Z,40.79
2019-04-21T12:38:55.545Z,40.8
2019-04-21T12:39:45.155Z,40.73
2019-04-21T12:40:44.579Z,40.78
2019-04-21T12:41:44.764Z,40.75
2019-04-21T12:42:45.605Z,40.74
2019-04-21T12:43:44.674Z,40.74
2019-04-21T12:44:45.603Z,40.79
2019-04-21T12:45:44.429Z,40.81
2019-04-21T12:46:45.719Z,40.79
2019-04-21T12:47:44.445Z,40.79
2019-04-21T12:48:44.503Z,40.78
2019-04-21T12:49:45.744Z,40.77
2019-04-21T12:50:45.952Z,40.75
2019-04-21T12:51:44.257Z,40.8
2019-04-21T12:52:45.456Z,40.78
2019-04-21T12:53:45.767Z,40.79
2019-04-21T12:54:45.979Z,40.76
2019-04-21T12:55:47.760Z,40.76
2019-04-21T12:56:45.706Z,40.79
2019-04-21T12:57:45.590Z,40.8
2019-04-21T12:58:44.522Z,40.77
2019-04-21T12:59:44.787Z,40.81
2019-04-21T13:00:45.099Z,40.9
2019-04-21T13:01:45.421Z,41.02
2019-04-21T13:02:45.730Z,41.02
2019-04-21T13:03:45.977Z,40.98
2019-04-21T13:04:46.222Z,41.01
2019-04-21T13:05:45.546Z,40.99
2019-04-21T13:06:45.897Z,40.98
2019-04-21T13:07:45.867Z,41
2019-04-21T13:09:01.272Z,40.95
2019-04-21T13:09:46.396Z,40.98
2019-04-21T13:10:44.560Z,40.99
2019-04-21T13:11:44.273Z,40.97
2019-04-21T13:12:44.250Z,41.01
2019-04-21T13:13:44.283Z,40.99
2019-04-21T13:14:44.287Z,40.96
2019-04-21T13:15:45.416Z,41.04
2019-04-21T13:16:45.846Z,40.98
2019-04-21T13:17:47.345Z,41.01
2019-04-21T13:18:45.129Z,41.05
2019-04-21T13:19:45.472Z,41.02
2019-04-21T13:20:44.632Z,41.02
2019-04-21T13:21:45.993Z,41.06
2019-04-21T13:22:46.182Z,41.05
2019-04-21T13:23:45.280Z,41.07
2019-04-21T13:24:44.469Z,41.06
2019-04-21T13:25:45.895Z,41.1
2019-04-21T13:26:56.544Z,41.07
2019-04-21T13:27:45.295Z,41.1
2019-04-21T13:28:44.801Z,41.03
2019-04-21T13:29:44.423Z,41.06
2019-04-21T13:30:44.602Z,41.01
2019-04-21T13:31:44.710Z,41.03
2019-04-21T13:32:45.335Z,41.03
2019-04-21T13:33:44.366Z,41.08
2019-04-21T13:34:44.527Z,41.06
2019-04-21T13:35:44.945Z,41.11
2019-04-21T13:36:45.776Z,41.04
2019-04-21T13:37:45.938Z,41.08
2019-04-21T13:39:50.097Z,41.23
2019-04-21T13:41:13.005Z,41.17
2019-04-21T13:42:07.437Z,41.21
2019-04-21T13:42:55.073Z,41.14
2019-04-21T13:43:45.616Z,41.28
2019-04-21T13:44:44.810Z,41.26
2019-04-21T13:45:45.938Z,41.25
2019-04-21T13:46:45.291Z,41.22
2019-04-21T13:47:44.550Z,41.2
2019-04-21T13:48:44.731Z,41.24
2019-04-21T13:49:45.575Z,41.24
2019-04-21T13:50:44.408Z,41.21
2019-04-21T13:51:46.070Z,41.2
2019-04-21T13:52:45.066Z,41.23
2019-04-21T13:53:45.660Z,41.14
2019-04-21T13:54:45.717Z,41.2
2019-04-21T13:55:44.788Z,41.18
2019-04-21T13:56:46.768Z,41.2
2019-04-21T13:57:44.590Z,41.2
2019-04-21T13:58:44.423Z,41.19
2019-04-21T13:59:44.708Z,41.15
2019-04-21T14:00:45.843Z,41.21
2019-04-21T14:01:45.849Z,41.14
2019-04-21T14:02:44.983Z,41.16
2019-04-21T14:03:44.869Z,41.21
2019-04-21T14:04:45.464Z,41.17
2019-04-21T14:05:44.649Z,41.18
2019-04-21T14:06:44.861Z,41.18
2019-04-21T14:07:44.279Z,41.18
2019-04-21T14:08:47.205Z,41.15
2019-04-21T14:09:59.261Z,41.17
2019-04-21T14:10:44.355Z,41.18
2019-04-21T14:11:45.411Z,41.17
2019-04-21T14:12:44.562Z,41.29
2019-04-21T14:13:44.910Z,41.13
2019-04-21T14:14:44.904Z,41.14
2019-04-21T14:15:49.763Z,41.1
2019-04-21T14:16:45.884Z,41.08
2019-04-21T14:17:44.837Z,41
2019-04-21T14:18:45.663Z,41.07
2019-04-21T14:19:45.774Z,41.05
2019-04-21T14:20:45.065Z,41.04
2019-04-21T14:21:49.783Z,41.03
2019-04-21T14:22:44.523Z,41.03
2019-04-21T14:23:51.201Z,41.07
2019-04-21T14:24:45.911Z,41.09
2019-04-21T14:25:45.918Z,41.04